createdAt,value
2022-12-22T00:01:54.377Z,99304.59
2022-12-22T00:04:40.873Z,99298.22
2022-12-22T00:07:26.715Z,99294.78
2022-12-22T00:10:12.621Z,99299.03
2022-12-22T00:12:59.941Z,99287.63
2022-12-22T00:15:47.207Z,99284.97
2022-12-22T00:18:34.523Z,99283.13
2022-12-22T00:21:20.393Z,99284.19
2022-12-22T00:24:06.172Z,99289.47
2022-12-22T00:26:53.485Z,99278.09
2022-12-22T00:29:40.706Z,99278.09
2022-12-22T00:32:32.640Z,99281.78
2022-12-22T00:35:18.969Z,99278.88
2022-12-22T00:38:04.954Z,99276.22
2022-12-22T00:40:51.021Z,99269.88
2022-12-22T00:43:36.997Z,99264.56
2022-12-22T00:46:24.557Z,99255.84
2022-12-22T00:49:10.701Z,99264.56
2022-12-22T00:51:56.639Z,99265.38
2022-12-22T00:54:42.415Z,99256.63
2022-12-22T00:57:36.446Z,99253.97
2022-12-22T01:00:25.181Z,99253.44
2022-12-22T01:03:12.477Z,99239.63
2022-12-22T01:05:58.727Z,99243.88
2022-12-22T01:08:44.708Z,99246.00
2022-12-22T01:11:30.323Z,99241.75
2022-12-22T01:14:16.378Z,99246.22
2022-12-22T01:17:02.362Z,99243.03
2022-12-22T01:19:49.354Z,99239.81
2022-12-22T01:22:39.742Z,99233.19
2022-12-22T01:29:08.244Z,99224.38
2022-12-22T01:31:54.307Z,99210.06
2022-12-22T01:34:40.102Z,99219.66
2022-12-22T01:37:27.518Z,99207.19
2022-12-22T01:40:13.397Z,99203.75
2022-12-22T01:42:59.207Z,99202.97
2022-12-22T01:45:48.420Z,99206.63
2022-12-22T01:48:37.644Z,99187.28
2022-12-22T01:51:26.584Z,99188.59
2022-12-22T01:54:14.764Z,99173.75
2022-12-22T01:57:01.248Z,99184.34
2022-12-22T01:59:47.020Z,99179.03
2022-12-22T02:02:35.924Z,99180.63
2022-12-22T02:05:25.429Z,99183.06
2022-12-22T02:08:20.805Z,99176.16
2022-12-22T02:11:26.818Z,99176.66
2022-12-22T02:14:30.206Z,99174.25
2022-12-22T02:17:26.491Z,99173.22
2022-12-22T02:20:51.061Z,99174.25
2022-12-22T02:24:00.120Z,99170.56
2022-12-22T02:26:50.987Z,99171.59
2022-12-22T02:29:40.069Z,99155.47
2022-12-22T02:32:25.954Z,99157.63
2022-12-22T02:35:12.024Z,99149.41
2022-12-22T02:38:09.029Z,99150.22
2022-12-22T02:41:04.403Z,99145.97
2022-12-22T02:44:10.706Z,99144.38
2022-12-22T02:47:05.833Z,99134.56
2022-12-22T02:50:00.305Z,99132.72
2022-12-22T02:52:51.843Z,99126.38
2022-12-22T02:55:39.088Z,99122.66
2022-12-22T02:58:25.517Z,99117.94
2022-12-22T03:01:12.477Z,99112.38
2022-12-22T03:03:58.314Z,99108.69
2022-12-22T03:06:44.417Z,99097.03
2022-12-22T03:09:30.452Z,99098.63
2022-12-22T03:12:16.230Z,99097.56
2022-12-22T03:15:02.228Z,99088.03
2022-12-22T03:17:49.096Z,99094.38
2022-12-22T03:20:34.860Z,99085.13
2022-12-22T03:23:23.239Z,99071.63
2022-12-22T03:25:51.919Z,99088.59
2022-12-22T03:28:22.218Z,99086.72
2022-12-22T03:30:59.862Z,99089.38
2022-12-22T03:33:30.383Z,99086.47
2022-12-22T03:35:59.682Z,99078.28
2022-12-22T03:38:28.283Z,99063.19
2022-12-22T03:40:56.780Z,99048.88
2022-12-22T03:43:43.154Z,99058.16
2022-12-22T03:46:32.411Z,99066.34
2022-12-22T03:49:11.441Z,99047.00
2022-12-22T03:51:43.803Z,99045.97
2022-12-22T03:54:14.151Z,99059.75
2022-12-22T03:56:43.232Z,99062.16
2022-12-22T03:59:13.048Z,99064.81
2022-12-22T04:01:44.401Z,99042.56
2022-12-22T04:04:16.267Z,99053.16
2022-12-22T04:06:45.383Z,99033.56
2022-12-22T04:09:13.995Z,99050.50
2022-12-22T04:11:59.870Z,99035.97
2022-12-22T04:14:33.941Z,99052.66
2022-12-22T04:17:03.533Z,99033.03
2022-12-22T04:19:34.155Z,99034.63
2022-12-22T04:22:02.821Z,99024.03
2022-12-22T04:24:31.235Z,99026.69
2022-12-22T04:26:59.597Z,99025.09
2022-12-22T04:29:27.952Z,99015.56
2022-12-22T04:31:56.305Z,99014.78
2022-12-22T04:34:24.715Z,99014.78
2022-12-22T04:36:54.461Z,99004.69
2022-12-22T04:39:22.815Z,99004.69
2022-12-22T04:41:51.112Z,99005.50
2022-12-22T04:44:19.451Z,99004.19
2022-12-22T04:46:47.747Z,98996.50
2022-12-22T04:49:16.059Z,99003.91
2022-12-22T04:51:44.432Z,99014.53
2022-12-22T04:54:14.159Z,99009.22
2022-12-22T04:56:42.536Z,99002.34
2022-12-22T04:59:10.928Z,98994.38
2022-12-22T05:01:39.504Z,98990.66
2022-12-22T05:04:07.961Z,98977.41
2022-12-22T05:06:36.426Z,98971.09
2022-12-22T05:09:05.258Z,98976.38
2022-12-22T05:11:34.992Z,98988.03
2022-12-22T05:14:07.232Z,98974.78
2022-12-22T05:16:36.094Z,98985.91
2022-12-22T05:19:04.528Z,98980.06
2022-12-22T05:21:32.889Z,98991.72
2022-12-22T05:24:01.353Z,98982.41
2022-12-22T05:26:29.741Z,98993.31
2022-12-22T05:28:59.457Z,98985.63
2022-12-22T05:31:28.258Z,98977.66
2022-12-22T05:33:56.617Z,98977.91
2022-12-22T05:36:24.977Z,98984.28
2022-12-22T05:38:53.339Z,98994.88
2022-12-22T05:41:21.674Z,98993.28
2022-12-22T05:43:49.985Z,98990.88
2022-12-22T05:46:19.735Z,98988.22
2022-12-22T05:48:48.135Z,98993.28
2022-12-22T05:51:16.548Z,98990.38
2022-12-22T05:53:44.975Z,98988.50
2022-12-22T05:56:13.355Z,98980.56
2022-12-22T05:58:41.662Z,98978.97
2022-12-22T06:01:10.013Z,98976.31
2022-12-22T06:03:39.791Z,98975.25
2022-12-22T06:06:09.133Z,98981.13
2022-12-22T06:08:37.477Z,98967.88
2022-12-22T06:11:06.192Z,98967.59
2022-12-22T06:13:34.700Z,98976.34
2022-12-22T06:16:03.106Z,98970.00
2022-12-22T06:18:31.444Z,98978.47
2022-12-22T06:21:01.142Z,98957.28
2022-12-22T06:23:29.514Z,98971.31
2022-12-22T06:25:59.675Z,98968.44
2022-12-22T06:28:28.635Z,98976.38
2022-12-22T06:30:57.089Z,98973.75
2022-12-22T06:33:25.425Z,98971.31
2022-12-22T06:35:58.611Z,98973.19
2022-12-22T06:38:29.787Z,98972.38
2022-12-22T06:40:58.210Z,98966.03
2022-12-22T06:43:25.965Z,98970.28
2022-12-22T06:45:55.309Z,98962.59
2022-12-22T06:48:24.222Z,98959.69
2022-12-22T06:50:52.784Z,98956.78
2022-12-22T06:53:21.076Z,98951.47
2022-12-22T06:55:50.830Z,98977.97
2022-12-22T06:58:19.315Z,98961.28
2022-12-22T07:00:49.830Z,98961.28
2022-12-22T07:03:18.350Z,98967.66
2022-12-22T07:05:46.768Z,98966.59
2022-12-22T07:08:15.127Z,98948.81
2022-12-22T07:11:01.763Z,98961.81
2022-12-22T07:13:34.178Z,98961.28
2022-12-22T07:16:03.362Z,98965.53
2022-12-22T07:18:34.267Z,98962.88
2022-12-22T07:21:05.058Z,98970.03
2022-12-22T07:23:34.026Z,98971.09
2022-12-22T07:26:02.883Z,98956.22
2022-12-22T07:28:35.120Z,98972.69
2022-12-22T07:31:04.706Z,98983.81
2022-12-22T07:33:33.547Z,98982.78
2022-12-22T07:36:07.579Z,98991.50
2022-12-22T07:38:38.738Z,98981.69
2022-12-22T07:41:29.143Z,98985.94
2022-12-22T07:43:59.815Z,98985.94
2022-12-22T07:46:34.543Z,98994.94
2022-12-22T07:49:20.801Z,98992.00
2022-12-22T07:51:49.435Z,98998.13
2022-12-22T07:54:18.754Z,99005.81
2022-12-22T07:56:48.306Z,98992.81
2022-12-22T07:59:18.410Z,99007.13
2022-12-22T08:01:48.350Z,98998.13
2022-12-22T08:04:18.064Z,98992.56
2022-12-22T08:06:46.479Z,99007.13
2022-12-22T08:09:18.210Z,98997.38
2022-12-22T08:11:46.597Z,99002.66
2022-12-22T08:14:14.998Z,99000.28
2022-12-22T08:16:44.725Z,99007.19
2022-12-22T08:19:13.155Z,98997.38
2022-12-22T08:21:45.310Z,99003.22
2022-12-22T08:24:18.584Z,98998.72
2022-12-22T08:26:50.666Z,99006.69
2022-12-22T08:29:24.219Z,98999.75
2022-12-22T08:31:55.386Z,98997.13
2022-12-22T08:34:23.843Z,98984.66
2022-12-22T08:36:56.016Z,98991.56
2022-12-22T08:39:27.180Z,99002.97
2022-12-22T08:41:56.073Z,98991.31
2022-12-22T08:44:26.705Z,98983.34
2022-12-22T08:46:59.034Z,98986.78
2022-12-22T08:49:27.998Z,98984.94
2022-12-22T08:51:56.356Z,98996.09
2022-12-22T08:54:24.883Z,98991.59
2022-12-22T08:56:53.727Z,98995.59
2022-12-22T08:59:22.100Z,98989.22
2022-12-22T09:01:51.081Z,98995.31
2022-12-22T09:04:24.396Z,98999.03
2022-12-22T09:06:54.001Z,98992.44
2022-12-22T09:09:22.746Z,99002.22
2022-12-22T09:11:51.677Z,98999.88
2022-12-22T09:14:20.154Z,98997.22
2022-12-22T09:16:48.752Z,98993.50
2022-12-22T09:19:17.419Z,98996.38
2022-12-22T09:21:47.781Z,98982.63
2022-12-22T09:24:16.864Z,98985.00
2022-12-22T09:26:45.445Z,99005.16
2022-12-22T09:29:16.027Z,99004.34
2022-12-22T09:31:45.007Z,98998.81
2022-12-22T09:34:18.151Z,98999.88
2022-12-22T09:36:48.979Z,98999.31
2022-12-22T09:39:20.069Z,98983.41
2022-12-22T09:41:53.840Z,99014.94
2022-12-22T09:44:27.056Z,99016.81
2022-12-22T09:46:57.844Z,99008.63
2022-12-22T09:49:26.808Z,99024.75
2022-12-22T09:52:00.404Z,99022.91
2022-12-22T09:54:30.917Z,99024.53
2022-12-22T09:56:59.825Z,99033.78
2022-12-22T09:59:31.270Z,99028.50
2022-12-22T10:02:18.144Z,99032.75
2022-12-22T10:05:00.455Z,99037.00
2022-12-22T10:07:35.192Z,99038.59
2022-12-22T10:10:09.059Z,99038.38
2022-12-22T10:12:37.783Z,99049.19
2022-12-22T10:15:14.253Z,99049.19
2022-12-22T10:17:46.906Z,99052.13
2022-12-22T10:20:26.464Z,99063.78
2022-12-22T10:22:59.798Z,99054.75
2022-12-22T10:26:17.281Z,99084.47
2022-12-22T10:28:28.623Z,99062.72
2022-12-22T10:31:23.601Z,99063.22
2022-12-22T10:33:54.614Z,99062.44
2022-12-22T10:36:26.907Z,99073.03
2022-12-22T10:39:04.213Z,99078.34
2022-12-22T10:41:37.304Z,99071.44
2022-12-22T10:44:10.703Z,99078.34
2022-12-22T10:46:45.066Z,99085.22
2022-12-22T10:49:20.911Z,99095.59
2022-12-22T10:51:53.419Z,99089.22
2022-12-22T10:54:36.509Z,99087.66
2022-12-22T10:57:26.482Z,99093.19
2022-12-22T10:59:58.105Z,99113.34
2022-12-22T11:02:31.664Z,99111.75
2022-12-22T11:05:09.532Z,99118.09
2022-12-22T11:07:40.810Z,99115.47
2022-12-22T11:10:29.101Z,99119.19
2022-12-22T11:13:40.916Z,99126.31
2022-12-22T11:16:16.972Z,99132.97
2022-12-22T11:19:00.350Z,99143.56
2022-12-22T11:21:37.632Z,99123.69
2022-12-22T11:24:24.596Z,99123.16
2022-12-22T11:27:05.220Z,99136.16
2022-12-22T11:30:02.839Z,99129.81
2022-12-22T11:33:01.264Z,99143.84
2022-12-22T11:35:45.437Z,99145.72
2022-12-22T11:38:27.121Z,99148.09
2022-12-22T11:41:03.917Z,99153.66
2022-12-22T11:43:45.281Z,99148.91
2022-12-22T11:46:23.905Z,99157.91
2022-12-22T11:49:41.580Z,99165.84
2022-12-22T11:52:23.896Z,99172.50
2022-12-22T11:55:13.465Z,99174.84
2022-12-22T11:57:57.021Z,99172.19
2022-12-22T12:00:55.835Z,99177.50
2022-12-22T12:03:51.160Z,99182.81
2022-12-22T12:06:49.607Z,99184.63
2022-12-22T12:09:36.806Z,99198.72
2022-12-22T12:12:12.976Z,99192.59
2022-12-22T12:14:55.118Z,99198.19
2022-12-22T12:17:43.282Z,99201.09
2022-12-22T12:20:34.963Z,99208.25
2022-12-22T12:23:21.387Z,99206.66
2022-12-22T12:25:57.112Z,99211.97
2022-12-22T12:28:36.639Z,99219.09
2022-12-22T12:31:07.877Z,99221.50
2022-12-22T12:33:46.256Z,99214.34
2022-12-22T12:36:20.952Z,99223.91
2022-12-22T12:39:09.708Z,99227.63
2022-12-22T12:41:51.231Z,99243.53
2022-12-22T12:44:24.285Z,99236.63
2022-12-22T12:47:23.095Z,99250.13
2022-12-22T12:50:35.072Z,99255.41
2022-12-22T12:53:09.281Z,99264.16
2022-12-22T12:56:00.235Z,99267.09
2022-12-22T12:58:54.766Z,99268.16
2022-12-22T13:02:01.225Z,99263.88
2022-12-22T13:05:19.618Z,99283.50
2022-12-22T13:08:18.104Z,99290.66
2022-12-22T13:10:50.809Z,99284.06
2022-12-22T13:13:48.547Z,99294.66
2022-12-22T13:16:43.952Z,99285.91
2022-12-22T13:19:28.185Z,99298.41
2022-12-22T13:21:59.476Z,99300.56
2022-12-22T13:24:34.774Z,99309.03
2022-12-22T13:31:20.877Z,99327.09
2022-12-22T13:34:07.811Z,99320.97
2022-12-22T13:36:38.561Z,99332.91
2022-12-22T13:39:16.946Z,99326.59
2022-12-22T13:41:48.262Z,99329.22
2022-12-22T13:44:20.597Z,99328.22
2022-12-22T13:46:49.268Z,99349.94
2022-12-22T13:49:43.469Z,99328.22
2022-12-22T13:52:13.122Z,99334.31
2022-12-22T13:54:46.431Z,99345.97
2022-12-22T13:57:20.634Z,99346.97
2022-12-22T13:59:55.214Z,99351.47
2022-12-22T14:02:33.496Z,99349.31
2022-12-22T14:05:09.917Z,99338.97
2022-12-22T14:07:38.473Z,99338.97
2022-12-22T14:10:09.593Z,99346.66
2022-12-22T14:12:42.704Z,99343.22
2022-12-22T14:15:19.131Z,99344.00
2022-12-22T14:17:52.737Z,99347.50
2022-12-22T14:20:27.576Z,99343.22
2022-12-22T14:23:01.169Z,99344.00
2022-12-22T14:25:39.048Z,99343.22
2022-12-22T14:28:15.127Z,99343.47
2022-12-22T14:30:47.738Z,99350.38
2022-12-22T14:33:27.215Z,99350.38
2022-12-22T14:36:07.992Z,99361.25
2022-12-22T14:38:43.348Z,99357.53
2022-12-22T14:41:33.724Z,99359.94
2022-12-22T14:44:03.971Z,99358.91
2022-12-22T14:46:38.670Z,99373.75
2022-12-22T14:49:14.320Z,99364.19
2022-12-22T14:51:42.837Z,99359.69
2022-12-22T14:54:21.535Z,99367.38
2022-12-22T14:56:54.325Z,99369.00
2022-12-22T14:59:29.284Z,99362.09
2022-12-22T15:02:00.713Z,99362.09
2022-12-22T15:04:29.810Z,99352.06
2022-12-22T15:07:45.822Z,99358.41
2022-12-22T15:10:15.087Z,99360.22
2022-12-22T15:12:45.837Z,99357.84
2022-12-22T15:15:18.209Z,99355.44
2022-12-22T15:17:49.193Z,99365.53
2022-12-22T15:20:22.559Z,99355.19
2022-12-22T15:22:51.543Z,99354.41
2022-12-22T15:25:21.949Z,99357.84
2022-12-22T15:27:54.726Z,99357.28
2022-12-22T15:30:30.008Z,99355.69
2022-12-22T15:32:58.546Z,99352.50
2022-12-22T15:35:32.436Z,99361.78
2022-12-22T15:38:01.224Z,99360.97
2022-12-22T15:40:30.517Z,99368.16
2022-12-22T15:43:00.394Z,99360.44
2022-12-22T15:45:28.842Z,99361.47
2022-12-22T15:47:57.530Z,99370.00
2022-12-22T15:50:35.143Z,99367.34
2022-12-22T15:53:09.154Z,99371.59
2022-12-22T15:55:42.156Z,99368.94
2022-12-22T15:58:14.380Z,99368.94
2022-12-22T16:00:42.781Z,99376.91
2022-12-22T16:03:13.205Z,99370.78
2022-12-22T16:05:42.591Z,99370.00
2022-12-22T16:08:17.866Z,99356.97
2022-12-22T16:10:48.653Z,99371.06
2022-12-22T16:13:20.878Z,99362.28
2022-12-22T16:15:49.400Z,99366.78
2022-12-22T16:18:19.012Z,99363.81
2022-12-22T16:20:50.113Z,99368.09
2022-12-22T16:23:22.676Z,99350.84
2022-12-22T16:25:55.546Z,99352.19
2022-12-22T16:28:29.298Z,99348.97
2022-12-22T16:30:57.945Z,99342.88
2022-12-22T16:33:26.482Z,99349.53
2022-12-22T16:35:54.896Z,99341.81
2022-12-22T16:38:23.380Z,99339.16
2022-12-22T16:40:54.068Z,99334.94
2022-12-22T16:46:20.248Z,99327.72
2022-12-22T16:48:52.105Z,99323.44
2022-12-22T16:51:25.976Z,99329.56
2022-12-22T16:53:54.560Z,99325.31
2022-12-22T16:56:26.882Z,99332.72
2022-12-22T16:58:56.839Z,99341.47
2022-12-22T17:01:36.372Z,99339.84
2022-12-22T17:04:09.052Z,99340.69
2022-12-22T17:06:38.428Z,99344.91
2022-12-22T17:09:12.715Z,99335.91
2022-12-22T17:11:41.254Z,99330.38
2022-12-22T17:14:23.650Z,99331.19
2022-12-22T17:16:53.421Z,99324.81
2022-12-22T17:19:21.967Z,99330.13
2022-12-22T17:21:51.158Z,99320.56
2022-12-22T17:24:27.497Z,99317.13
2022-12-22T17:27:06.863Z,99311.53
2022-12-22T17:29:37.475Z,99308.34
2022-12-22T17:32:06.207Z,99309.97
2022-12-22T17:34:34.565Z,99306.75
2022-12-22T17:37:02.987Z,99287.66
2022-12-22T17:39:32.699Z,99298.25
2022-12-22T17:42:01.016Z,99284.19
2022-12-22T17:44:29.468Z,99288.47
2022-12-22T17:46:59.262Z,99298.25
2022-12-22T17:49:27.620Z,99294.78
2022-12-22T17:51:56.001Z,99282.59
2022-12-22T17:54:27.209Z,99276.50
2022-12-22T17:57:00.054Z,99268.81
2022-12-22T17:59:28.416Z,99266.16
2022-12-22T18:01:58.280Z,99261.09
2022-12-22T18:04:27.059Z,99256.59
2022-12-22T18:06:56.000Z,99261.66
2022-12-22T18:09:27.205Z,99254.19
2022-12-22T18:11:55.706Z,99245.75
2022-12-22T18:14:24.815Z,99243.31
2022-12-22T18:16:53.144Z,99245.97
2022-12-22T18:19:23.024Z,99247.84
2022-12-22T18:21:51.339Z,99239.09
2022-12-22T18:24:20.927Z,99238.28
2022-12-22T18:26:49.270Z,99240.69
2022-12-22T18:29:20.796Z,99240.94
2022-12-22T18:31:49.194Z,99231.94
2022-12-22T18:34:17.639Z,99225.84
2022-12-22T18:36:47.773Z,99225.34
2022-12-22T18:39:19.077Z,99229.03
2022-12-22T18:41:47.674Z,99223.47
2022-12-22T18:44:19.743Z,99212.88
2022-12-22T18:46:49.718Z,99220.03
2022-12-22T18:49:18.339Z,99211.03
2022-12-22T18:51:48.068Z,99204.94
2022-12-22T18:54:37.002Z,99202.53
2022-12-22T18:57:13.082Z,99206.78
2022-12-22T18:59:41.540Z,99204.94
2022-12-22T19:02:23.448Z,99203.34
2022-12-22T19:04:52.389Z,99206.50
2022-12-22T19:07:27.057Z,99194.88
2022-12-22T19:09:55.436Z,99207.31
2022-12-22T19:12:25.195Z,99192.22
2022-12-22T19:14:59.849Z,99203.63
2022-12-22T19:17:31.291Z,99186.66
2022-12-22T19:19:59.737Z,99191.16
2022-12-22T19:22:29.445Z,99180.00
2022-12-22T19:24:59.279Z,99176.56
2022-12-22T19:27:28.990Z,99191.41
2022-12-22T19:30:03.999Z,99173.13
2022-12-22T19:32:41.836Z,99173.38
2022-12-22T19:35:16.395Z,99174.19
2022-12-22T19:37:46.690Z,99171.22
2022-12-22T19:40:16.947Z,99167.00
2022-12-22T19:42:48.560Z,99167.00
2022-12-22T19:45:21.922Z,99161.91
2022-12-22T19:47:54.352Z,99162.97
2022-12-22T19:50:25.821Z,99154.75
2022-12-22T19:52:57.569Z,99159.47
2022-12-22T19:55:29.707Z,99147.28
2022-12-22T19:57:58.161Z,99143.84
2022-12-22T20:00:28.670Z,99145.44
2022-12-22T20:02:58.642Z,99142.75
2022-12-22T20:05:33.248Z,99138.25
2022-12-22T20:08:03.961Z,99127.88
2022-12-22T20:10:34.494Z,99136.88
2022-12-22T20:13:05.429Z,99128.16
2022-12-22T20:15:38.308Z,99124.44
2022-12-22T20:18:19.526Z,99128.16
2022-12-22T20:20:58.361Z,99132.66
2022-12-22T20:23:30.998Z,99138.75
2022-12-22T20:26:04.130Z,99113.31
2022-12-22T20:28:36.043Z,99128.94
2022-12-22T20:31:06.838Z,99109.34
2022-12-22T20:33:35.910Z,99103.75
2022-12-22T20:36:11.025Z,99107.44
2022-12-22T20:38:43.135Z,99102.16
2022-12-22T20:41:11.995Z,99105.38
2022-12-22T20:43:41.694Z,99093.69
2022-12-22T20:46:16.868Z,99102.44
2022-12-22T20:48:48.922Z,99100.84
2022-12-22T20:51:21.074Z,99084.97
2022-12-22T20:53:54.115Z,99091.84
2022-12-22T20:56:29.879Z,99088.13
2022-12-22T20:59:00.349Z,99087.34
2022-12-22T21:01:29.452Z,99074.09
2022-12-22T21:03:57.983Z,99079.16
2022-12-22T21:06:29.330Z,99074.88
2022-12-22T21:09:01.175Z,99060.06
2022-12-22T21:11:31.078Z,99055.03
2022-12-22T21:14:00.197Z,99053.16
2022-12-22T21:16:34.166Z,99056.88
2022-12-22T21:19:03.565Z,99047.88
2022-12-22T21:21:32.117Z,99052.91
2022-12-22T21:24:01.909Z,99031.47
2022-12-22T21:26:34.107Z,99034.13
2022-12-22T21:29:05.943Z,99035.69
2022-12-22T21:31:34.383Z,99033.03
2022-12-22T21:34:03.958Z,99029.34
2022-12-22T21:36:34.657Z,99024.84
2022-12-22T21:39:08.224Z,99022.19
2022-12-22T21:41:56.365Z,99018.22
2022-12-22T21:44:24.676Z,99028.53
2022-12-22T21:46:53.204Z,99023.81
2022-12-22T21:49:24.454Z,99018.22
2022-12-22T21:51:54.589Z,99008.44
2022-12-22T21:54:26.718Z,99004.19
2022-12-22T21:56:56.025Z,99000.97
2022-12-22T21:59:24.862Z,99002.03
2022-12-22T22:01:53.788Z,98990.94
2022-12-22T22:04:22.714Z,98993.84
2022-12-22T22:06:51.159Z,98983.00
2022-12-22T22:09:19.516Z,98979.53
2022-12-22T22:12:06.773Z,98983.00
2022-12-22T22:14:35.205Z,98974.25
2022-12-22T22:17:03.586Z,98967.88
2022-12-22T22:19:31.950Z,98969.47
2022-12-22T22:22:00.314Z,98961.53
2022-12-22T22:24:28.712Z,98962.34
2022-12-22T22:26:58.509Z,98962.88
2022-12-22T22:29:28.823Z,98959.41
2022-12-22T22:31:57.199Z,98947.75
2022-12-22T22:34:25.585Z,98955.72
2022-12-22T22:36:53.933Z,98954.91
2022-12-22T22:39:23.587Z,98958.63
2022-12-22T22:41:51.995Z,98958.63
2022-12-22T22:44:28.567Z,98959.41
2022-12-22T22:46:57.942Z,98958.63
2022-12-22T22:49:28.775Z,98968.16
2022-12-22T22:51:57.484Z,98968.97
2022-12-22T22:54:25.837Z,98965.28
2022-12-22T22:56:54.425Z,98954.91
2022-12-22T22:59:25.984Z,98953.84
2022-12-22T23:01:54.505Z,98950.69
2022-12-22T23:04:23.025Z,98957.84
2022-12-22T23:06:51.425Z,98950.13
2022-12-22T23:09:19.805Z,98951.47
2022-12-22T23:11:48.142Z,98949.06
2022-12-22T23:14:16.548Z,98951.97
2022-12-22T23:16:46.345Z,98944.03
2022-12-22T23:19:14.713Z,98933.41
2022-12-22T23:21:43.374Z,98929.44
2022-12-22T23:24:11.841Z,98928.34
2022-12-22T23:26:40.687Z,98928.63
2022-12-22T23:29:09.115Z,98913.78
2022-12-22T23:31:38.178Z,98901.84
2022-12-22T23:34:07.991Z,98906.88
2022-12-22T23:36:36.258Z,98906.09
2022-12-22T23:39:05.285Z,98901.59
2022-12-22T23:41:33.780Z,98888.34
2022-12-22T23:44:02.151Z,98892.59
2022-12-22T23:46:30.515Z,98893.41
2022-12-22T23:49:00.706Z,98893.13
2022-12-22T23:51:30.940Z,98885.16
2022-12-22T23:54:01.559Z,98883.06
2022-12-22T23:56:30.600Z,98863.97
2022-12-22T23:58:59.258Z,98864.53
